sensor_id;sensor_type;location;lat;lon;timestamp;pressure;altitude;pressure_sealevel;temperature;humidity
9746;BME280;4912;50.836;12.958;2023-04-22T00:00:18;97500.31;;;13.64;53.00
9746;BME280;4912;50.836;12.958;2023-04-22T00:02:48;97492.69;;;13.59;53.04
9746;BME280;4912;50.836;12.958;2023-04-22T00:05:19;97493.19;;;13.57;53.24
9746;BME280;4912;50.836;12.958;2023-04-22T00:07:50;97483.13;;;13.60;51.91
9746;BME280;4912;50.836;12.958;2023-04-22T00:10:20;97485.34;;;13.56;51.68
9746;BME280;4912;50.836;12.958;2023-04-22T00:12:53;97494.72;;;13.58;53.57
9746;BME280;4912;50.836;12.958;2023-04-22T00:15:23;97486.91;;;13.62;51.96
9746;BME280;4912;50.836;12.958;2023-04-22T00:17:53;97485.19;;;13.70;52.20
9746;BME280;4912;50.836;12.958;2023-04-22T00:20:24;97480.16;;;13.74;51.58
9746;BME280;4912;50.836;12.958;2023-04-22T00:22:55;97485.50;;;13.78;52.06
9746;BME280;4912;50.836;12.958;2023-04-22T00:25:25;97481.41;;;13.73;52.06
9746;BME280;4912;50.836;12.958;2023-04-22T00:27:58;97476.88;;;13.76;51.59
9746;BME280;4912;50.836;12.958;2023-04-22T00:30:28;97479.16;;;13.77;50.95
9746;BME280;4912;50.836;12.958;2023-04-22T00:32:59;97481.44;;;13.79;51.09
9746;BME280;4912;50.836;12.958;2023-04-22T00:35:29;97477.16;;;13.78;50.77
9746;BME280;4912;50.836;12.958;2023-04-22T00:37:59;97473.63;;;13.83;51.99
9746;BME280;4912;50.836;12.958;2023-04-22T00:40:30;97468.06;;;13.83;50.88
9746;BME280;4912;50.836;12.958;2023-04-22T00:43:03;97473.13;;;13.84;51.71
9746;BME280;4912;50.836;12.958;2023-04-22T00:45:34;97464.78;;;13.84;51.02
9746;BME280;4912;50.836;12.958;2023-04-22T00:48:05;97470.34;;;13.84;50.85
9746;BME280;4912;50.836;12.958;2023-04-22T00:50:36;97470.84;;;13.83;50.72
9746;BME280;4912;50.836;12.958;2023-04-22T00:53:06;97463.25;;;13.78;52.11
9746;BME280;4912;50.836;12.958;2023-04-22T00:55:37;97461.44;;;13.75;51.82
9746;BME280;4912;50.836;12.958;2023-04-22T00:58:10;97459.94;;;13.74;51.85
9746;BME280;4912;50.836;12.958;2023-04-22T01:00:40;97458.88;;;13.66;51.88
9746;BME280;4912;50.836;12.958;2023-04-22T01:03:11;97458.38;;;13.67;51.58
9746;BME280;4912;50.836;12.958;2023-04-22T01:05:42;97453.06;;;13.64;52.34
9746;BME280;4912;50.836;12.958;2023-04-22T01:08:14;97462.13;;;13.59;51.98
9746;BME280;4912;50.836;12.958;2023-04-22T01:10:44;97458.81;;;13.55;53.09
9746;BME280;4912;50.836;12.958;2023-04-22T01:13:18;97449.41;;;13.46;52.70
9746;BME280;4912;50.836;12.958;2023-04-22T01:15:49;97453.47;;;13.51;52.49
9746;BME280;4912;50.836;12.958;2023-04-22T01:18:19;97456.56;;;13.59;52.49
9746;BME280;4912;50.836;12.958;2023-04-22T01:20:49;97456.84;;;13.61;52.13
9746;BME280;4912;50.836;12.958;2023-04-22T01:23:24;97455.31;;;13.60;52.36
9746;BME280;4912;50.836;12.958;2023-04-22T01:25:54;97454.06;;;13.61;52.83
9746;BME280;4912;50.836;12.958;2023-04-22T01:28:25;97446.22;;;13.59;52.83
9746;BME280;4912;50.836;12.958;2023-04-22T01:30:55;97445.44;;;13.59;53.17
9746;BME280;4912;50.836;12.958;2023-04-22T01:33:29;97447.16;;;13.50;53.91
9746;BME280;4912;50.836;12.958;2023-04-22T01:36:00;97440.59;;;13.48;52.87
9746;BME280;4912;50.836;12.958;2023-04-22T01:38:33;97442.84;;;13.49;53.31
9746;BME280;4912;50.836;12.958;2023-04-22T01:41:04;97443.13;;;13.51;52.71
9746;BME280;4912;50.836;12.958;2023-04-22T01:43:34;97436.53;;;13.49;53.53
9746;BME280;4912;50.836;12.958;2023-04-22T01:46:06;97424.91;;;13.45;53.52
9746;BME280;4912;50.836;12.958;2023-04-22T01:48:39;97430.41;;;13.39;53.45
9746;BME280;4912;50.836;12.958;2023-04-22T01:51:16;97432.94;;;13.37;53.17
9746;BME280;4912;50.836;12.958;2023-04-22T01:53:50;97436.25;;;13.41;53.50
9746;BME280;4912;50.836;12.958;2023-04-22T01:56:22;97441.56;;;13.45;52.76
9746;BME280;4912;50.836;12.958;2023-04-22T01:58:53;97434.28;;;13.47;52.79
9746;BME280;4912;50.836;12.958;2023-04-22T02:01:23;97429.50;;;13.53;52.90
9746;BME280;4912;50.836;12.958;2023-04-22T02:03:54;97437.84;;;13.53;52.71
9746;BME280;4912;50.836;12.958;2023-04-22T02:06:24;97432.81;;;13.58;52.51
9746;BME280;4912;50.836;12.958;2023-04-22T02:08:57;97431.81;;;13.61;52.68
9746;BME280;4912;50.836;12.958;2023-04-22T02:11:27;97428.28;;;13.60;52.71
9746;BME280;4912;50.836;12.958;2023-04-22T02:13:58;97425.53;;;13.66;52.44
9746;BME280;4912;50.836;12.958;2023-04-22T02:16:28;97428.56;;;13.68;52.05
9746;BME280;4912;50.836;12.958;2023-04-22T02:18:59;97427.78;;;13.67;52.28
9746;BME280;4912;50.836;12.958;2023-04-22T02:21:30;97427.03;;;13.67;51.79
9746;BME280;4912;50.836;12.958;2023-04-22T02:24:05;97431.09;;;13.66;51.72
9746;BME280;4912;50.836;12.958;2023-04-22T02:26:35;97432.34;;;13.65;51.84
9746;BME280;4912;50.836;12.958;2023-04-22T02:29:06;97430.06;;;13.63;51.64
9746;BME280;4912;50.836;12.958;2023-04-22T02:31:36;97440.31;;;13.46;51.97
9746;BME280;4912;50.836;12.958;2023-04-22T02:34:07;97435.06;;;13.53;51.96
9746;BME280;4912;50.836;12.958;2023-04-22T02:36:37;97426.78;;;13.65;51.95
9746;BME280;4912;50.836;12.958;2023-04-22T02:39:10;97425.50;;;13.60;52.31
9746;BME280;4912;50.836;12.958;2023-04-22T02:41:41;97420.91;;;13.51;52.05
9746;BME280;4912;50.836;12.958;2023-04-22T02:44:11;97433.25;;;13.50;52.24
9746;BME280;4912;50.836;12.958;2023-04-22T02:46:41;97422.69;;;13.55;52.43
9746;BME280;4912;50.836;12.958;2023-04-22T02:49:12;97419.91;;;13.55;51.88
9746;BME280;4912;50.836;12.958;2023-04-22T02:51:42;97414.34;;;13.55;52.10
9746;BME280;4912;50.836;12.958;2023-04-22T02:54:15;97415.38;;;13.57;52.02
9746;BME280;4912;50.836;12.958;2023-04-22T02:56:46;97420.91;;;13.51;51.80
9746;BME280;4912;50.836;12.958;2023-04-22T02:59:16;97418.63;;;13.56;51.82
9746;BME280;4912;50.836;12.958;2023-04-22T03:01:47;97413.28;;;13.46;51.86
9746;BME280;4912;50.836;12.958;2023-04-22T03:04:31;97407.50;;;13.56;52.18
9746;BME280;4912;50.836;12.958;2023-04-22T03:07:02;97406.25;;;13.57;52.42
9746;BME280;4912;50.836;12.958;2023-04-22T03:09:36;97404.25;;;13.57;51.58
9746;BME280;4912;50.836;12.958;2023-04-22T03:12:07;97405.28;;;13.60;51.71
9746;BME280;4912;50.836;12.958;2023-04-22T03:14:37;97400.47;;;13.60;51.62
9746;BME280;4912;50.836;12.958;2023-04-22T03:17:08;97390.31;;;13.51;51.68
9746;BME280;4912;50.836;12.958;2023-04-22T03:19:39;97390.63;;;13.65;51.58
9746;BME280;4912;50.836;12.958;2023-04-22T03:22:09;97396.19;;;13.65;51.88
9746;BME280;4912;50.836;12.958;2023-04-22T03:24:42;97398.72;;;13.63;52.06
9746;BME280;4912;50.836;12.958;2023-04-22T03:27:13;97394.19;;;13.65;51.64
9746;BME280;4912;50.836;12.958;2023-04-22T03:29:44;97386.59;;;13.60;51.55
9746;BME280;4912;50.836;12.958;2023-04-22T03:32:14;97383.56;;;13.64;51.66
9746;BME280;4912;50.836;12.958;2023-04-22T03:34:46;97376.97;;;13.67;51.58
9746;BME280;4912;50.836;12.958;2023-04-22T03:37:18;97379.53;;;13.65;51.29
9746;BME280;4912;50.836;12.958;2023-04-22T03:39:51;97390.13;;;13.61;51.25
9746;BME280;4912;50.836;12.958;2023-04-22T03:42:21;97396.91;;;13.54;51.48
9746;BME280;4912;50.836;12.958;2023-04-22T03:44:52;97404.97;;;13.52;51.47
9746;BME280;4912;50.836;12.958;2023-04-22T03:47:27;97402.75;;;13.62;51.36
9746;BME280;4912;50.836;12.958;2023-04-22T03:50:05;97402.28;;;13.69;51.67
9746;BME280;4912;50.836;12.958;2023-04-22T03:52:36;97402.56;;;13.71;51.64
9746;BME280;4912;50.836;12.958;2023-04-22T03:55:09;97406.84;;;13.72;51.29
9746;BME280;4912;50.836;12.958;2023-04-22T03:57:41;97404.31;;;13.74;50.90
9746;BME280;4912;50.836;12.958;2023-04-22T04:00:12;97401.97;;;13.61;50.91
9746;BME280;4912;50.836;12.958;2023-04-22T04:02:48;97398.72;;;13.63;51.42
9746;BME280;4912;50.836;12.958;2023-04-22T04:05:23;97409.00;;;13.51;51.28
9746;BME280;4912;50.836;12.958;2023-04-22T04:07:54;97408.78;;;13.55;51.25
9746;BME280;4912;50.836;12.958;2023-04-22T04:10:28;97404.03;;;13.61;50.80
9746;BME280;4912;50.836;12.958;2023-04-22T04:12:59;97411.09;;;13.62;50.78
9746;BME280;4912;50.836;12.958;2023-04-22T04:15:38;97412.13;;;13.64;51.61
9746;BME280;4912;50.836;12.958;2023-04-22T04:18:09;97409.38;;;13.70;51.11
9746;BME280;4912;50.836;12.958;2023-04-22T04:20:40;97403.56;;;13.73;51.07
9746;BME280;4912;50.836;12.958;2023-04-22T04:23:10;97396.28;;;13.81;50.89
9746;BME280;4912;50.836;12.958;2023-04-22T04:25:44;97405.13;;;13.85;50.10
9746;BME280;4912;50.836;12.958;2023-04-22T04:28:14;97400.34;;;13.91;50.09
9746;BME280;4912;50.836;12.958;2023-04-22T04:30:45;97392.28;;;13.99;50.54
9746;BME280;4912;50.836;12.958;2023-04-22T04:33:16;97401.16;;;14.09;50.06
9746;BME280;4912;50.836;12.958;2023-04-22T04:35:47;97397.66;;;14.19;49.89
9746;BME280;4912;50.836;12.958;2023-04-22T04:38:23;97407.28;;;14.24;50.12
9746;BME280;4912;50.836;12.958;2023-04-22T04:40:56;97406.72;;;14.14;49.64
9746;BME280;4912;50.836;12.958;2023-04-22T04:43:28;97403.75;;;14.23;49.25
9746;BME280;4912;50.836;12.958;2023-04-22T04:46:08;97401.94;;;14.20;50.72
9746;BME280;4912;50.836;12.958;2023-04-22T04:48:39;97401.94;;;14.20;51.35
9746;BME280;4912;50.836;12.958;2023-04-22T04:51:10;97405.75;;;14.17;51.42
9746;BME280;4912;50.836;12.958;2023-04-22T04:53:50;97406.72;;;14.14;51.83
9746;BME280;4912;50.836;12.958;2023-04-22T04:56:23;97409.00;;;14.10;49.96
9746;BME280;4912;50.836;12.958;2023-04-22T04:58:54;97410.06;;;14.18;49.82
9746;BME280;4912;50.836;12.958;2023-04-22T05:01:26;97403.50;;;14.32;49.94
9746;BME280;4912;50.836;12.958;2023-04-22T05:04:02;97407.31;;;14.35;49.99
9746;BME280;4912;50.836;12.958;2023-04-22T05:06:34;97408.31;;;14.32;51.77
9746;BME280;4912;50.836;12.958;2023-04-22T05:09:04;97405.78;;;14.34;49.62
9746;BME280;4912;50.836;12.958;2023-04-22T05:11:39;97407.63;;;14.43;48.77
9746;BME280;4912;50.836;12.958;2023-04-22T05:14:14;97404.06;;;14.48;49.40
9746;BME280;4912;50.836;12.958;2023-04-22T05:16:45;97408.13;;;14.58;48.87
9746;BME280;4912;50.836;12.958;2023-04-22T05:19:16;97414.19;;;14.62;49.54
9746;BME280;4912;50.836;12.958;2023-04-22T05:21:48;97422.06;;;14.69;48.96
9746;BME280;4912;50.836;12.958;2023-04-22T05:24:18;97410.41;;;14.65;48.77
9746;BME280;4912;50.836;12.958;2023-04-22T05:26:52;97407.13;;;14.72;48.97
9746;BME280;4912;50.836;12.958;2023-04-22T05:29:23;97412.94;;;14.80;48.22
9746;BME280;4912;50.836;12.958;2023-04-22T05:31:53;97418.78;;;14.70;48.42
9746;BME280;4912;50.836;12.958;2023-04-22T05:34:24;97426.09;;;14.68;48.37
9746;BME280;4912;50.836;12.958;2023-04-22T05:36:54;97427.13;;;14.70;48.12
9746;BME280;4912;50.836;12.958;2023-04-22T05:39:25;97429.16;;;14.98;48.33
9746;BME280;4912;50.836;12.958;2023-04-22T05:42:00;97431.19;;;15.31;47.81
9746;BME280;4912;50.836;12.958;2023-04-22T05:44:32;97429.63;;;15.52;47.55
9746;BME280;4912;50.836;12.958;2023-04-22T05:47:02;97428.31;;;15.75;47.29
9746;BME280;4912;50.836;12.958;2023-04-22T05:49:34;97435.31;;;15.98;46.29
9746;BME280;4912;50.836;12.958;2023-04-22T05:52:26;97437.34;;;15.98;45.33
9746;BME280;4912;50.836;12.958;2023-04-22T05:55:05;97439.91;;;15.96;45.59
9746;BME280;4912;50.836;12.958;2023-04-22T05:57:39;97434.84;;;15.94;45.03
9746;BME280;4912;50.836;12.958;2023-04-22T06:00:22;97438.53;;;16.25;45.10
9746;BME280;4912;50.836;12.958;2023-04-22T06:03:07;97438.13;;;16.45;45.32
9746;BME280;4912;50.836;12.958;2023-04-22T06:05:39;97431.75;;;16.50;43.80
9746;BME280;4912;50.836;12.958;2023-04-22T06:08:10;97435.81;;;16.60;44.21
9746;BME280;4912;50.836;12.958;2023-04-22T06:10:41;97435.56;;;16.94;43.94
9746;BME280;4912;50.836;12.958;2023-04-22T06:13:14;97435.94;;;17.09;43.11
9746;BME280;4912;50.836;12.958;2023-04-22T06:15:44;97431.44;;;17.30;43.14
9746;BME280;4912;50.836;12.958;2023-04-22T06:18:15;97431.13;;;17.64;42.96
9746;BME280;4912;50.836;12.958;2023-04-22T06:20:46;97433.28;;;17.76;41.92
9746;BME280;4912;50.836;12.958;2023-04-22T06:23:16;97437.88;;;17.98;42.06
9746;BME280;4912;50.836;12.958;2023-04-22T06:25:46;97427.47;;;18.17;41.12
9746;BME280;4912;50.836;12.958;2023-04-22T06:28:19;97429.88;;;18.26;39.96
9746;BME280;4912;50.836;12.958;2023-04-22T06:30:53;97419.66;;;18.48;40.67
9746;BME280;4912;50.836;12.958;2023-04-22T06:33:24;97422.47;;;18.48;39.40
9746;BME280;4912;50.836;12.958;2023-04-22T06:35:54;97431.50;;;18.59;39.12
9746;BME280;4912;50.836;12.958;2023-04-22T06:38:25;97428.31;;;18.68;38.59
9746;BME280;4912;50.836;12.958;2023-04-22T06:41:16;97416.59;;;19.02;38.24
9746;BME280;4912;50.836;12.958;2023-04-22T06:43:51;97416.53;;;19.34;38.60
9746;BME280;4912;50.836;12.958;2023-04-22T06:46:39;97423.84;;;19.69;38.12
9746;BME280;4912;50.836;12.958;2023-04-22T06:49:10;97424.38;;;19.80;36.93
9746;BME280;4912;50.836;12.958;2023-04-22T06:51:55;97430.00;;;20.07;37.11
9746;BME280;4912;50.836;12.958;2023-04-22T06:54:25;97424.69;;;20.42;38.39
9746;BME280;4912;50.836;12.958;2023-04-22T06:56:58;97419.09;;;20.63;36.28
9746;BME280;4912;50.836;12.958;2023-04-22T06:59:31;97414.03;;;20.82;35.91
9746;BME280;4912;50.836;12.958;2023-04-22T07:02:02;97418.63;;;20.72;34.58
9746;BME280;4912;50.836;12.958;2023-04-22T07:04:36;97426.50;;;20.74;34.40
9746;BME280;4912;50.836;12.958;2023-04-22T07:07:06;97412.53;;;20.81;34.67
9746;BME280;4912;50.836;12.958;2023-04-22T07:09:37;97420.72;;;20.59;34.02
9746;BME280;4912;50.836;12.958;2023-04-22T07:12:08;97414.88;;;20.91;35.12
9746;BME280;4912;50.836;12.958;2023-04-22T07:14:44;97414.88;;;20.91;34.00
9746;BME280;4912;50.836;12.958;2023-04-22T07:17:14;97418.31;;;20.97;34.44
9746;BME280;4912;50.836;12.958;2023-04-22T07:19:48;97413.41;;;21.31;35.38
9746;BME280;4912;50.836;12.958;2023-04-22T07:22:19;97406.56;;;21.47;33.99
9746;BME280;4912;50.836;12.958;2023-04-22T07:24:49;97406.13;;;21.64;34.45
9746;BME280;4912;50.836;12.958;2023-04-22T07:27:19;97398.22;;;21.62;32.90
9746;BME280;4912;50.836;12.958;2023-04-22T07:29:52;97409.69;;;21.36;32.79
9746;BME280;4912;50.836;12.958;2023-04-22T07:32:23;97403.47;;;21.58;34.65
9746;BME280;4912;50.836;12.958;2023-04-22T07:34:53;97404.75;;;21.86;33.79
9746;BME280;4912;50.836;12.958;2023-04-22T07:37:23;97410.13;;;21.97;32.53
9746;BME280;4912;50.836;12.958;2023-04-22T07:39:54;97403.72;;;21.96;31.89
9746;BME280;4912;50.836;12.958;2023-04-22T07:42:24;97406.50;;;22.25;33.10
9746;BME280;4912;50.836;12.958;2023-04-22T07:44:57;97407.25;;;22.33;31.69
9746;BME280;4912;50.836;12.958;2023-04-22T07:47:27;97408.03;;;22.33;30.45
9746;BME280;4912;50.836;12.958;2023-04-22T07:49:58;97400.31;;;22.26;30.94
9746;BME280;4912;50.836;12.958;2023-04-22T07:52:28;97403.91;;;22.34;30.39
9746;BME280;4912;50.836;12.958;2023-04-22T07:54:58;97400.06;;;22.68;31.23
9746;BME280;4912;50.836;12.958;2023-04-22T07:57:29;97400.31;;;22.85;30.45
9746;BME280;4912;50.836;12.958;2023-04-22T08:00:07;97393.38;;;23.01;29.21
9746;BME280;4912;50.836;12.958;2023-04-22T08:02:39;97396.22;;;23.09;28.46
9746;BME280;4912;50.836;12.958;2023-04-22T08:05:10;97415.78;;;23.45;29.46
9746;BME280;4912;50.836;12.958;2023-04-22T08:07:40;97397.16;;;23.57;28.97
9746;BME280;4912;50.836;12.958;2023-04-22T08:10:11;97401.56;;;24.13;28.59
9746;BME280;4912;50.836;12.958;2023-04-22T08:12:41;97394.84;;;24.48;27.33
9746;BME280;4912;50.836;12.958;2023-04-22T08:15:14;97402.69;;;24.98;27.68
9746;BME280;4912;50.836;12.958;2023-04-22T08:17:44;97394.88;;;25.55;26.37
9746;BME280;4912;50.836;12.958;2023-04-22T08:20:17;97391.78;;;26.20;26.14
9746;BME280;4912;50.836;12.958;2023-04-22T08:22:48;97402.25;;;26.62;25.04
9746;BME280;4912;50.836;12.958;2023-04-22T08:25:23;97385.09;;;27.59;24.92
9746;BME280;4912;50.836;12.958;2023-04-22T08:27:54;97391.31;;;28.14;22.84
9746;BME280;4912;50.836;12.958;2023-04-22T08:30:27;97383.50;;;28.24;23.41
9746;BME280;4912;50.836;12.958;2023-04-22T08:32:57;97391.16;;;28.31;22.90
9746;BME280;4912;50.836;12.958;2023-04-22T08:35:27;97385.91;;;29.06;22.44
9746;BME280;4912;50.836;12.958;2023-04-22T08:37:58;97389.47;;;29.57;21.56
9746;BME280;4912;50.836;12.958;2023-04-22T08:40:28;97381.25;;;29.73;22.39
9746;BME280;4912;50.836;12.958;2023-04-22T08:42:58;97377.38;;;29.89;22.49
9746;BME280;4912;50.836;12.958;2023-04-22T08:45:31;97386.28;;;29.62;20.99
9746;BME280;4912;50.836;12.958;2023-04-22T08:48:02;97381.66;;;29.26;21.25
9746;BME280;4912;50.836;12.958;2023-04-22T08:50:33;97381.63;;;29.57;22.12
9746;BME280;4912;50.836;12.958;2023-04-22T08:53:06;97383.19;;;30.34;21.42
9746;BME280;4912;50.836;12.958;2023-04-22T08:55:36;97377.50;;;30.34;21.06
9746;BME280;4912;50.836;12.958;2023-04-22T08:58:08;97377.59;;;30.24;20.39
9746;BME280;4912;50.836;12.958;2023-04-22T09:00:43;97379.16;;;29.73;20.88
9746;BME280;4912;50.836;12.958;2023-04-22T09:03:13;97376.97;;;29.31;21.08
9746;BME280;4912;50.836;12.958;2023-04-22T09:05:45;97394.63;;;28.99;20.60
9746;BME280;4912;50.836;12.958;2023-04-22T09:08:16;97381.59;;;28.96;20.65
9746;BME280;4912;50.836;12.958;2023-04-22T09:10:46;97376.34;;;29.02;20.15
9746;BME280;4912;50.836;12.958;2023-04-22T09:13:16;97379.56;;;28.77;20.04
9746;BME280;4912;50.836;12.958;2023-04-22T09:15:51;97371.69;;;28.27;20.28
9746;BME280;4912;50.836;12.958;2023-04-22T09:18:25;97375.41;;;28.10;20.74
9746;BME280;4912;50.836;12.958;2023-04-22T09:20:55;97364.78;;;28.49;20.86
9746;BME280;4912;50.836;12.958;2023-04-22T09:23:25;97375.59;;;28.32;21.27
9746;BME280;4912;50.836;12.958;2023-04-22T09:28:01;97378.97;;;28.78;20.59
9746;BME280;4912;50.836;12.958;2023-04-22T09:30:33;97356.44;;;29.23;21.52
9746;BME280;4912;50.836;12.958;2023-04-22T09:33:05;97359.50;;;29.15;20.78
9746;BME280;4912;50.836;12.958;2023-04-22T09:35:38;97368.06;;;29.06;20.35
9746;BME280;4912;50.836;12.958;2023-04-22T09:38:11;97359.25;;;29.02;20.13
9746;BME280;4912;50.836;12.958;2023-04-22T09:40:43;97361.41;;;29.53;20.12
9746;BME280;4912;50.836;12.958;2023-04-22T09:43:17;97348.56;;;29.43;20.34
9746;BME280;4912;50.836;12.958;2023-04-22T09:45:48;97356.41;;;29.02;20.17
9746;BME280;4912;50.836;12.958;2023-04-22T09:48:19;97353.06;;;29.15;20.01
9746;BME280;4912;50.836;12.958;2023-04-22T09:50:50;97349.25;;;28.91;19.84
9746;BME280;4912;50.836;12.958;2023-04-22T09:53:21;97345.53;;;28.69;20.33
9746;BME280;4912;50.836;12.958;2023-04-22T09:55:53;97359.16;;;28.90;20.01
9746;BME280;4912;50.836;12.958;2023-04-22T09:58:27;97358.75;;;28.74;20.66
9746;BME280;4912;50.836;12.958;2023-04-22T10:00:58;97359.81;;;28.60;20.67
9746;BME280;4912;50.836;12.958;2023-04-22T10:03:29;97355.44;;;28.59;20.06
9746;BME280;4912;50.836;12.958;2023-04-22T10:06:00;97343.69;;;28.93;20.33
9746;BME280;4912;50.836;12.958;2023-04-22T10:08:31;97365.44;;;28.88;19.78
9746;BME280;4912;50.836;12.958;2023-04-22T10:11:02;97347.66;;;28.59;19.96
9746;BME280;4912;50.836;12.958;2023-04-22T10:13:35;97356.63;;;28.65;20.06
9746;BME280;4912;50.836;12.958;2023-04-22T10:16:06;97353.34;;;28.78;20.81
9746;BME280;4912;50.836;12.958;2023-04-22T10:18:38;97350.72;;;28.32;19.70
9746;BME280;4912;50.836;12.958;2023-04-22T10:21:09;97342.47;;;28.07;21.24
9746;BME280;4912;50.836;12.958;2023-04-22T10:23:44;97336.97;;;28.69;21.64
9746;BME280;4912;50.836;12.958;2023-04-22T10:26:46;97340.66;;;29.01;20.60
9746;BME280;4912;50.836;12.958;2023-04-22T10:29:23;97330.84;;;29.13;20.92
9746;BME280;4912;50.836;12.958;2023-04-22T10:31:58;97340.41;;;28.87;19.88
9746;BME280;4912;50.836;12.958;2023-04-22T10:34:37;97346.44;;;28.72;21.04
9746;BME280;4912;50.836;12.958;2023-04-22T10:37:09;97340.16;;;28.73;20.88
9746;BME280;4912;50.836;12.958;2023-04-22T10:39:41;97323.72;;;29.03;21.37
9746;BME280;4912;50.836;12.958;2023-04-22T10:42:12;97336.19;;;28.98;20.14
9746;BME280;4912;50.836;12.958;2023-04-22T10:44:50;97336.34;;;29.52;20.60
9746;BME280;4912;50.836;12.958;2023-04-22T10:47:27;97337.38;;;29.78;19.89
9746;BME280;4912;50.836;12.958;2023-04-22T10:50:19;97328.75;;;29.66;19.55
9746;BME280;4912;50.836;12.958;2023-04-22T10:52:55;97326.69;;;30.21;19.31
9746;BME280;4912;50.836;12.958;2023-04-22T10:55:49;97324.34;;;30.50;19.69
9746;BME280;4912;50.836;12.958;2023-04-22T10:58:23;97324.09;;;30.58;17.94
9746;BME280;4912;50.836;12.958;2023-04-22T11:00:57;97316.09;;;30.44;19.12
9746;BME280;4912;50.836;12.958;2023-04-22T11:03:29;97324.84;;;30.58;17.90
9746;BME280;4912;50.836;12.958;2023-04-22T11:06:13;97326.25;;;30.69;17.84
9746;BME280;4912;50.836;12.958;2023-04-22T11:08:45;97322.66;;;30.80;18.36
9746;BME280;4912;50.836;12.958;2023-04-22T11:11:17;97317.72;;;31.15;18.31
9746;BME280;4912;50.836;12.958;2023-04-22T11:13:48;97319.91;;;31.52;17.27
9746;BME280;4912;50.836;12.958;2023-04-22T11:16:23;97324.44;;;31.08;17.32
9746;BME280;4912;50.836;12.958;2023-04-22T11:18:54;97305.03;;;31.07;17.72
9746;BME280;4912;50.836;12.958;2023-04-22T11:21:25;97300.25;;;31.46;17.65
9746;BME280;4912;50.836;12.958;2023-04-22T11:23:57;97300.00;;;32.53;16.63
9746;BME280;4912;50.836;12.958;2023-04-22T11:26:33;97304.22;;;32.38;16.67
9746;BME280;4912;50.836;12.958;2023-04-22T11:29:04;97298.25;;;32.34;16.52
9746;BME280;4912;50.836;12.958;2023-04-22T11:31:37;97289.50;;;32.83;15.62
9746;BME280;4912;50.836;12.958;2023-04-22T11:34:08;97299.63;;;32.98;16.77
9746;BME280;4912;50.836;12.958;2023-04-22T11:36:42;97303.59;;;34.02;16.70
9746;BME280;4912;50.836;12.958;2023-04-22T11:39:14;97297.25;;;33.90;15.43
9746;BME280;4912;50.836;12.958;2023-04-22T11:41:44;97290.72;;;33.19;15.75
9746;BME280;4912;50.836;12.958;2023-04-22T11:44:15;97285.03;;;33.89;15.87
9746;BME280;4912;50.836;12.958;2023-04-22T11:46:48;97278.97;;;34.12;15.40
9746;BME280;4912;50.836;12.958;2023-04-22T11:49:18;97283.84;;;34.24;15.23
9746;BME280;4912;50.836;12.958;2023-04-22T11:51:53;97285.25;;;33.66;15.86
9746;BME280;4912;50.836;12.958;2023-04-22T11:54:31;97288.25;;;33.41;16.67
9746;BME280;4912;50.836;12.958;2023-04-22T11:57:05;97275.38;;;32.73;15.24
9746;BME280;4912;50.836;12.958;2023-04-22T11:59:41;97286.88;;;33.14;15.23
9746;BME280;4912;50.836;12.958;2023-04-22T12:02:16;97268.84;;;32.59;15.25
9746;BME280;4912;50.836;12.958;2023-04-22T12:04:46;97279.78;;;32.63;14.90
9746;BME280;4912;50.836;12.958;2023-04-22T12:07:17;97278.25;;;32.48;14.69
9746;BME280;4912;50.836;12.958;2023-04-22T12:09:47;97274.13;;;33.04;16.78
9746;BME280;4912;50.836;12.958;2023-04-22T12:12:23;97267.59;;;34.15;16.01
9746;BME280;4912;50.836;12.958;2023-04-22T12:14:55;97269.00;;;33.70;16.72
9746;BME280;4912;50.836;12.958;2023-04-22T12:17:30;97269.44;;;32.83;15.32
9746;BME280;4912;50.836;12.958;2023-04-22T12:20:02;97264.97;;;32.66;14.62
9746;BME280;4912;50.836;12.958;2023-04-22T12:22:33;97268.06;;;32.45;14.84
9746;BME280;4912;50.836;12.958;2023-04-22T12:25:09;97263.13;;;31.83;15.60
9746;BME280;4912;50.836;12.958;2023-04-22T12:27:39;97258.94;;;32.48;15.43
9746;BME280;4912;50.836;12.958;2023-04-22T12:30:11;97261.34;;;33.61;14.91
9746;BME280;4912;50.836;12.958;2023-04-22T12:32:46;97259.06;;;34.46;14.19
9746;BME280;4912;50.836;12.958;2023-04-22T12:35:17;97242.72;;;35.29;14.64
9746;BME280;4912;50.836;12.958;2023-04-22T12:37:47;97247.88;;;35.82;13.88
9746;BME280;4912;50.836;12.958;2023-04-22T12:40:18;97241.56;;;35.85;14.06
9746;BME280;4912;50.836;12.958;2023-04-22T12:42:52;97236.25;;;36.50;14.56
9746;BME280;4912;50.836;12.958;2023-04-22T12:45:22;97243.63;;;36.73;14.65
9746;BME280;4912;50.836;12.958;2023-04-22T12:47:56;97231.28;;;36.90;14.39
9746;BME280;4912;50.836;12.958;2023-04-22T12:50:26;97236.16;;;37.06;14.25
9746;BME280;4912;50.836;12.958;2023-04-22T12:52:57;97231.59;;;37.18;13.91
9746;BME280;4912;50.836;12.958;2023-04-22T12:55:28;97228.66;;;37.16;13.30
9746;BME280;4912;50.836;12.958;2023-04-22T12:57:58;97228.06;;;37.20;13.36
9746;BME280;4912;50.836;12.958;2023-04-22T13:00:30;97229.69;;;37.66;13.94
9746;BME280;4912;50.836;12.958;2023-04-22T13:03:03;97221.44;;;37.79;14.18
9746;BME280;4912;50.836;12.958;2023-04-22T13:05:34;97219.88;;;37.97;13.49
9746;BME280;4912;50.836;12.958;2023-04-22T13:08:05;97217.41;;;37.88;13.95
9746;BME280;4912;50.836;12.958;2023-04-22T13:10:36;97213.72;;;37.85;14.01
9746;BME280;4912;50.836;12.958;2023-04-22T13:13:07;97205.41;;;37.32;14.09
9746;BME280;4912;50.836;12.958;2023-04-22T13:15:40;97207.63;;;36.74;14.48
9746;BME280;4912;50.836;12.958;2023-04-22T13:18:13;97200.78;;;36.46;14.84
9746;BME280;4912;50.836;12.958;2023-04-22T13:20:45;97206.97;;;36.38;15.07
9746;BME280;4912;50.836;12.958;2023-04-22T13:23:15;97203.88;;;35.97;14.68
9746;BME280;4912;50.836;12.958;2023-04-22T13:25:48;97195.78;;;35.58;15.80
9746;BME280;4912;50.836;12.958;2023-04-22T13:28:18;97190.47;;;35.68;15.69
9746;BME280;4912;50.836;12.958;2023-04-22T13:30:49;97189.25;;;35.40;14.99
9746;BME280;4912;50.836;12.958;2023-04-22T13:33:22;97190.63;;;35.21;15.62
9746;BME280;4912;50.836;12.958;2023-04-22T13:35:53;97181.25;;;35.20;16.11
9746;BME280;4912;50.836;12.958;2023-04-22T13:38:24;97171.88;;;35.20;16.85